sensor_id;sensor_type;location;lat;lon;timestamp;P1;durP1;ratioP1;P2;durP2;ratioP2
12623;SDS011;6377;42.836;23.998;2023-02-18T00:01:16;126.57;;;66.77;;
12623;SDS011;6377;42.836;23.998;2023-02-18T00:03:45;120.57;;;65.67;;
12623;SDS011;6377;42.836;23.998;2023-02-18T00:06:13;133.23;;;66.30;;
12623;SDS011;6377;42.836;23.998;2023-02-18T00:08:44;134.83;;;64.50;;
12623;SDS011;6377;42.836;23.998;2023-02-18T00:11:12;83.70;;;45.43;;
12623;SDS011;6377;42.836;23.998;2023-02-18T00:13:39;74.40;;;42.37;;
12623;SDS011;6377;42.836;23.998;2023-02-18T00:16:11;63.83;;;35.90;;
12623;SDS011;6377;42.836;23.998;2023-02-18T00:18:39;63.23;;;35.60;;
12623;SDS011;6377;42.836;23.998;2023-02-18T00:21:06;54.80;;;32.00;;
12623;SDS011;6377;42.836;23.998;2023-02-18T00:23:34;52.77;;;29.07;;
12623;SDS011;6377;42.836;23.998;2023-02-18T00:26:04;53.60;;;31.47;;
12623;SDS011;6377;42.836;23.998;2023-02-18T00:28:32;68.40;;;37.70;;
12623;SDS011;6377;42.836;23.998;2023-02-18T00:31:04;53.67;;;30.03;;
12623;SDS011;6377;42.836;23.998;2023-02-18T00:33:32;57.50;;;31.73;;
12623;SDS011;6377;42.836;23.998;2023-02-18T00:36:02;53.87;;;31.63;;
12623;SDS011;6377;42.836;23.998;2023-02-18T00:38:30;61.83;;;32.70;;
12623;SDS011;6377;42.836;23.998;2023-02-18T00:40:58;62.60;;;34.97;;
12623;SDS011;6377;42.836;23.998;2023-02-18T00:43:27;62.10;;;35.03;;
12623;SDS011;6377;42.836;23.998;2023-02-18T00:45:55;73.43;;;40.23;;
12623;SDS011;6377;42.836;23.998;2023-02-18T00:48:22;88.40;;;46.30;;
12623;SDS011;6377;42.836;23.998;2023-02-18T00:50:49;98.83;;;49.40;;
12623;SDS011;6377;42.836;23.998;2023-02-18T00:53:16;104.80;;;54.40;;
12623;SDS011;6377;42.836;23.998;2023-02-18T00:55:44;131.20;;;60.57;;
12623;SDS011;6377;42.836;23.998;2023-02-18T00:58:13;205.07;;;99.97;;
12623;SDS011;6377;42.836;23.998;2023-02-18T01:00:42;135.27;;;65.47;;
12623;SDS011;6377;42.836;23.998;2023-02-18T01:03:10;117.93;;;54.87;;
12623;SDS011;6377;42.836;23.998;2023-02-18T01:05:38;103.83;;;52.20;;
12623;SDS011;6377;42.836;23.998;2023-02-18T01:08:06;104.30;;;50.80;;
12623;SDS011;6377;42.836;23.998;2023-02-18T01:10:34;107.67;;;53.63;;
12623;SDS011;6377;42.836;23.998;2023-02-18T01:13:03;98.50;;;53.70;;
12623;SDS011;6377;42.836;23.998;2023-02-18T01:15:30;103.27;;;54.60;;
12623;SDS011;6377;42.836;23.998;2023-02-18T01:17:59;95.40;;;50.87;;
12623;SDS011;6377;42.836;23.998;2023-02-18T01:20:26;111.33;;;54.00;;
12623;SDS011;6377;42.836;23.998;2023-02-18T01:22:53;112.97;;;56.17;;
12623;SDS011;6377;42.836;23.998;2023-02-18T01:25:21;119.20;;;55.63;;
12623;SDS011;6377;42.836;23.998;2023-02-18T01:27:48;143.97;;;69.03;;
12623;SDS011;6377;42.836;23.998;2023-02-18T01:30:16;89.20;;;46.63;;
12623;SDS011;6377;42.836;23.998;2023-02-18T01:32:44;77.53;;;40.47;;
12623;SDS011;6377;42.836;23.998;2023-02-18T01:35:14;53.63;;;28.40;;
12623;SDS011;6377;42.836;23.998;2023-02-18T01:37:42;43.97;;;25.70;;
12623;SDS011;6377;42.836;23.998;2023-02-18T01:40:11;65.67;;;32.80;;
12623;SDS011;6377;42.836;23.998;2023-02-18T01:42:40;64.07;;;32.77;;
12623;SDS011;6377;42.836;23.998;2023-02-18T01:48:22;67.97;;;32.00;;
12623;SDS011;6377;42.836;23.998;2023-02-18T01:50:55;66.83;;;31.97;;
12623;SDS011;6377;42.836;23.998;2023-02-18T01:53:26;77.97;;;37.80;;
12623;SDS011;6377;42.836;23.998;2023-02-18T01:55:57;67.80;;;34.07;;
12623;SDS011;6377;42.836;23.998;2023-02-18T01:58:29;63.77;;;32.50;;
12623;SDS011;6377;42.836;23.998;2023-02-18T02:00:57;58.50;;;28.63;;
12623;SDS011;6377;42.836;23.998;2023-02-18T02:03:24;56.87;;;27.80;;
12623;SDS011;6377;42.836;23.998;2023-02-18T02:05:53;42.83;;;24.97;;
12623;SDS011;6377;42.836;23.998;2023-02-18T02:08:20;49.37;;;25.57;;
12623;SDS011;6377;42.836;23.998;2023-02-18T02:10:55;45.63;;;24.33;;
12623;SDS011;6377;42.836;23.998;2023-02-18T02:13:34;41.73;;;23.07;;
12623;SDS011;6377;42.836;23.998;2023-02-18T02:16:18;120.17;;;53.27;;
12623;SDS011;6377;42.836;23.998;2023-02-18T02:18:55;66.03;;;33.20;;
12623;SDS011;6377;42.836;23.998;2023-02-18T02:36:43;102.30;;;44.43;;
12623;SDS011;6377;42.836;23.998;2023-02-18T02:39:19;100.60;;;46.40;;
12623;SDS011;6377;42.836;23.998;2023-02-18T02:41:53;96.20;;;44.23;;
12623;SDS011;6377;42.836;23.998;2023-02-18T02:44:34;103.43;;;43.90;;
12623;SDS011;6377;42.836;23.998;2023-02-18T02:47:10;57.00;;;31.40;;
12623;SDS011;6377;42.836;23.998;2023-02-18T02:49:44;61.63;;;31.17;;
12623;SDS011;6377;42.836;23.998;2023-02-18T02:52:21;78.50;;;35.90;;
12623;SDS011;6377;42.836;23.998;2023-02-18T02:54:52;76.83;;;39.27;;
12623;SDS011;6377;42.836;23.998;2023-02-18T03:00:11;50.03;;;27.20;;
12623;SDS011;6377;42.836;23.998;2023-02-18T03:02:42;52.70;;;27.47;;
12623;SDS011;6377;42.836;23.998;2023-02-18T03:05:21;51.83;;;28.67;;
12623;SDS011;6377;42.836;23.998;2023-02-18T03:08:06;40.70;;;23.13;;
12623;SDS011;6377;42.836;23.998;2023-02-18T03:10:41;43.00;;;25.63;;
12623;SDS011;6377;42.836;23.998;2023-02-18T03:13:17;50.47;;;27.20;;
12623;SDS011;6377;42.836;23.998;2023-02-18T03:15:54;57.70;;;30.60;;
12623;SDS011;6377;42.836;23.998;2023-02-18T03:18:24;61.27;;;34.43;;
12623;SDS011;6377;42.836;23.998;2023-02-18T03:21:00;68.00;;;36.23;;
12623;SDS011;6377;42.836;23.998;2023-02-18T03:23:36;66.17;;;33.30;;
12623;SDS011;6377;42.836;23.998;2023-02-18T03:26:09;60.17;;;32.27;;
12623;SDS011;6377;42.836;23.998;2023-02-18T03:28:40;57.03;;;30.40;;
12623;SDS011;6377;42.836;23.998;2023-02-18T03:31:09;76.87;;;38.37;;
12623;SDS011;6377;42.836;23.998;2023-02-18T03:33:42;59.83;;;31.87;;
12623;SDS011;6377;42.836;23.998;2023-02-18T03:36:12;63.70;;;32.67;;
12623;SDS011;6377;42.836;23.998;2023-02-18T03:38:41;65.20;;;32.60;;
12623;SDS011;6377;42.836;23.998;2023-02-18T03:41:11;64.63;;;33.60;;
12623;SDS011;6377;42.836;23.998;2023-02-18T03:43:39;60.07;;;31.70;;
12623;SDS011;6377;42.836;23.998;2023-02-18T03:46:06;73.37;;;34.07;;
12623;SDS011;6377;42.836;23.998;2023-02-18T03:48:33;63.23;;;33.33;;
12623;SDS011;6377;42.836;23.998;2023-02-18T03:51:01;59.23;;;31.07;;
12623;SDS011;6377;42.836;23.998;2023-02-18T03:53:28;59.17;;;33.03;;
12623;SDS011;6377;42.836;23.998;2023-02-18T03:55:57;53.40;;;30.80;;
12623;SDS011;6377;42.836;23.998;2023-02-18T03:58:24;50.10;;;28.90;;
12623;SDS011;6377;42.836;23.998;2023-02-18T04:00:51;52.10;;;29.67;;
12623;SDS011;6377;42.836;23.998;2023-02-18T04:03:18;55.83;;;33.40;;
12623;SDS011;6377;42.836;23.998;2023-02-18T04:05:46;57.27;;;32.70;;
12623;SDS011;6377;42.836;23.998;2023-02-18T04:08:13;60.10;;;35.77;;
12623;SDS011;6377;42.836;23.998;2023-02-18T04:10:40;53.90;;;32.80;;
12623;SDS011;6377;42.836;23.998;2023-02-18T04:13:09;56.03;;;33.47;;
12623;SDS011;6377;42.836;23.998;2023-02-18T04:15:36;43.13;;;25.77;;
12623;SDS011;6377;42.836;23.998;2023-02-18T04:18:03;58.00;;;32.57;;
12623;SDS011;6377;42.836;23.998;2023-02-18T04:20:30;67.93;;;37.63;;
12623;SDS011;6377;42.836;23.998;2023-02-18T04:22:58;67.23;;;37.73;;
12623;SDS011;6377;42.836;23.998;2023-02-18T04:25:25;82.07;;;40.50;;
12623;SDS011;6377;42.836;23.998;2023-02-18T04:27:52;68.77;;;37.37;;
12623;SDS011;6377;42.836;23.998;2023-02-18T04:30:21;67.40;;;36.13;;
12623;SDS011;6377;42.836;23.998;2023-02-18T04:32:48;61.00;;;35.47;;
12623;SDS011;6377;42.836;23.998;2023-02-18T04:35:15;65.03;;;35.10;;
12623;SDS011;6377;42.836;23.998;2023-02-18T04:37:43;74.23;;;40.13;;
12623;SDS011;6377;42.836;23.998;2023-02-18T04:40:10;72.27;;;42.10;;
12623;SDS011;6377;42.836;23.998;2023-02-18T04:42:37;76.17;;;41.37;;
12623;SDS011;6377;42.836;23.998;2023-02-18T04:45:05;60.67;;;34.53;;
12623;SDS011;6377;42.836;23.998;2023-02-18T04:47:34;66.47;;;36.80;;
12623;SDS011;6377;42.836;23.998;2023-02-18T04:50:01;62.60;;;36.17;;
12623;SDS011;6377;42.836;23.998;2023-02-18T04:52:29;70.20;;;37.30;;
12623;SDS011;6377;42.836;23.998;2023-02-18T04:54:56;69.53;;;40.10;;
12623;SDS011;6377;42.836;23.998;2023-02-18T04:57:23;71.33;;;39.17;;
12623;SDS011;6377;42.836;23.998;2023-02-18T04:59:50;74.57;;;41.67;;
12623;SDS011;6377;42.836;23.998;2023-02-18T05:02:17;71.73;;;40.30;;
12623;SDS011;6377;42.836;23.998;2023-02-18T05:04:46;64.50;;;34.93;;
12623;SDS011;6377;42.836;23.998;2023-02-18T05:07:13;72.77;;;39.40;;
12623;SDS011;6377;42.836;23.998;2023-02-18T05:09:40;74.77;;;42.20;;
12623;SDS011;6377;42.836;23.998;2023-02-18T05:12:08;91.57;;;49.03;;
12623;SDS011;6377;42.836;23.998;2023-02-18T05:14:35;88.17;;;46.70;;
12623;SDS011;6377;42.836;23.998;2023-02-18T05:17:02;89.73;;;49.70;;
12623;SDS011;6377;42.836;23.998;2023-02-18T05:19:29;114.27;;;55.90;;
12623;SDS011;6377;42.836;23.998;2023-02-18T05:21:58;116.37;;;56.87;;
12623;SDS011;6377;42.836;23.998;2023-02-18T05:24:25;136.53;;;66.00;;
12623;SDS011;6377;42.836;23.998;2023-02-18T05:26:52;176.60;;;91.27;;
12623;SDS011;6377;42.836;23.998;2023-02-18T05:29:19;138.53;;;73.93;;
12623;SDS011;6377;42.836;23.998;2023-02-18T05:31:46;139.90;;;70.70;;
12623;SDS011;6377;42.836;23.998;2023-02-18T05:34:14;162.30;;;82.57;;
12623;SDS011;6377;42.836;23.998;2023-02-18T05:36:41;158.07;;;82.83;;
12623;SDS011;6377;42.836;23.998;2023-02-18T05:39:09;152.07;;;78.47;;
12623;SDS011;6377;42.836;23.998;2023-02-18T05:41:37;158.37;;;81.50;;
12623;SDS011;6377;42.836;23.998;2023-02-18T05:44:04;145.97;;;76.73;;
12623;SDS011;6377;42.836;23.998;2023-02-18T05:46:48;259.87;;;123.33;;
12623;SDS011;6377;42.836;23.998;2023-02-18T05:49:15;177.07;;;98.70;;
12623;SDS011;6377;42.836;23.998;2023-02-18T05:51:43;177.87;;;92.83;;
12623;SDS011;6377;42.836;23.998;2023-02-18T05:54:11;134.13;;;73.93;;
12623;SDS011;6377;42.836;23.998;2023-02-18T05:56:39;138.80;;;73.37;;
12623;SDS011;6377;42.836;23.998;2023-02-18T05:59:06;122.00;;;67.57;;
12623;SDS011;6377;42.836;23.998;2023-02-18T06:01:33;114.80;;;60.73;;
12623;SDS011;6377;42.836;23.998;2023-02-18T06:04:00;108.27;;;61.87;;
12623;SDS011;6377;42.836;23.998;2023-02-18T06:06:27;125.30;;;68.57;;
12623;SDS011;6377;42.836;23.998;2023-02-18T06:08:55;138.73;;;79.23;;
12623;SDS011;6377;42.836;23.998;2023-02-18T06:11:24;160.77;;;89.60;;
12623;SDS011;6377;42.836;23.998;2023-02-18T06:13:51;152.57;;;86.20;;
12623;SDS011;6377;42.836;23.998;2023-02-18T06:16:18;155.07;;;89.87;;
12623;SDS011;6377;42.836;23.998;2023-02-18T06:18:45;229.20;;;123.47;;
12623;SDS011;6377;42.836;23.998;2023-02-18T06:21:12;251.90;;;134.27;;
12623;SDS011;6377;42.836;23.998;2023-02-18T06:23:40;262.20;;;143.40;;
12623;SDS011;6377;42.836;23.998;2023-02-18T06:26:07;287.20;;;150.70;;
12623;SDS011;6377;42.836;23.998;2023-02-18T06:28:36;309.03;;;167.07;;
12623;SDS011;6377;42.836;23.998;2023-02-18T06:31:03;335.10;;;180.70;;
12623;SDS011;6377;42.836;23.998;2023-02-18T06:33:30;296.00;;;162.07;;
12623;SDS011;6377;42.836;23.998;2023-02-18T06:35:58;279.10;;;148.87;;
12623;SDS011;6377;42.836;23.998;2023-02-18T06:38:27;270.63;;;148.10;;
12623;SDS011;6377;42.836;23.998;2023-02-18T06:40:54;290.00;;;154.03;;
12623;SDS011;6377;42.836;23.998;2023-02-18T06:43:22;271.43;;;147.83;;
12623;SDS011;6377;42.836;23.998;2023-02-18T06:45:50;254.77;;;144.83;;
12623;SDS011;6377;42.836;23.998;2023-02-18T06:48:18;335.80;;;188.00;;
12623;SDS011;6377;42.836;23.998;2023-02-18T06:50:45;272.17;;;151.13;;
12623;SDS011;6377;42.836;23.998;2023-02-18T06:53:13;249.70;;;141.50;;
12623;SDS011;6377;42.836;23.998;2023-02-18T06:55:42;301.87;;;163.30;;
12623;SDS011;6377;42.836;23.998;2023-02-18T06:58:09;336.07;;;184.30;;
12623;SDS011;6377;42.836;23.998;2023-02-18T07:00:37;291.67;;;157.47;;
12623;SDS011;6377;42.836;23.998;2023-02-18T07:03:06;642.03;;;279.67;;
12623;SDS011;6377;42.836;23.998;2023-02-18T07:05:34;504.07;;;233.53;;
12623;SDS011;6377;42.836;23.998;2023-02-18T07:08:01;507.50;;;231.27;;
12623;SDS011;6377;42.836;23.998;2023-02-18T07:10:28;561.67;;;256.47;;
12623;SDS011;6377;42.836;23.998;2023-02-18T07:12:56;541.30;;;256.40;;
12623;SDS011;6377;42.836;23.998;2023-02-18T07:15:23;426.50;;;208.87;;
12623;SDS011;6377;42.836;23.998;2023-02-18T07:17:52;324.80;;;157.17;;
12623;SDS011;6377;42.836;23.998;2023-02-18T07:20:21;285.70;;;142.50;;
12623;SDS011;6377;42.836;23.998;2023-02-18T07:22:50;296.47;;;153.87;;
12623;SDS011;6377;42.836;23.998;2023-02-18T07:25:17;312.53;;;155.93;;
12623;SDS011;6377;42.836;23.998;2023-02-18T07:27:44;297.73;;;154.63;;
12623;SDS011;6377;42.836;23.998;2023-02-18T07:30:12;293.27;;;152.63;;
12623;SDS011;6377;42.836;23.998;2023-02-18T07:32:40;346.23;;;191.70;;
12623;SDS011;6377;42.836;23.998;2023-02-18T07:35:07;373.83;;;200.10;;
12623;SDS011;6377;42.836;23.998;2023-02-18T07:37:37;366.80;;;191.67;;
12623;SDS011;6377;42.836;23.998;2023-02-18T07:40:05;308.70;;;166.23;;
12623;SDS011;6377;42.836;23.998;2023-02-18T07:42:33;264.00;;;149.13;;
12623;SDS011;6377;42.836;23.998;2023-02-18T07:45:00;216.27;;;127.73;;
12623;SDS011;6377;42.836;23.998;2023-02-18T07:47:27;240.67;;;148.40;;
12623;SDS011;6377;42.836;23.998;2023-02-18T07:49:55;160.37;;;95.30;;
12623;SDS011;6377;42.836;23.998;2023-02-18T07:52:22;175.23;;;105.23;;
12623;SDS011;6377;42.836;23.998;2023-02-18T07:54:51;177.40;;;106.03;;
12623;SDS011;6377;42.836;23.998;2023-02-18T07:57:18;184.87;;;116.20;;
12623;SDS011;6377;42.836;23.998;2023-02-18T07:59:45;154.57;;;92.30;;
12623;SDS011;6377;42.836;23.998;2023-02-18T08:02:14;208.97;;;121.30;;
12623;SDS011;6377;42.836;23.998;2023-02-18T08:04:44;198.97;;;116.73;;
12623;SDS011;6377;42.836;23.998;2023-02-18T08:07:12;244.70;;;144.30;;
12623;SDS011;6377;42.836;23.998;2023-02-18T08:09:40;186.83;;;113.30;;
12623;SDS011;6377;42.836;23.998;2023-02-18T08:12:09;175.87;;;108.93;;
12623;SDS011;6377;42.836;23.998;2023-02-18T08:14:36;177.50;;;107.43;;
12623;SDS011;6377;42.836;23.998;2023-02-18T08:17:03;185.30;;;111.67;;
12623;SDS011;6377;42.836;23.998;2023-02-18T08:19:30;179.33;;;111.53;;
12623;SDS011;6377;42.836;23.998;2023-02-18T08:21:59;145.27;;;94.23;;
12623;SDS011;6377;42.836;23.998;2023-02-18T08:24:27;218.20;;;128.47;;
12623;SDS011;6377;42.836;23.998;2023-02-18T08:26:54;176.93;;;111.07;;
12623;SDS011;6377;42.836;23.998;2023-02-18T08:29:23;171.17;;;108.23;;
12623;SDS011;6377;42.836;23.998;2023-02-18T08:31:50;181.87;;;107.57;;
12623;SDS011;6377;42.836;23.998;2023-02-18T08:34:19;185.70;;;112.40;;
12623;SDS011;6377;42.836;23.998;2023-02-18T08:36:46;212.00;;;125.90;;
12623;SDS011;6377;42.836;23.998;2023-02-18T08:39:13;206.60;;;120.13;;
12623;SDS011;6377;42.836;23.998;2023-02-18T08:41:41;207.03;;;128.17;;
12623;SDS011;6377;42.836;23.998;2023-02-18T08:44:08;331.47;;;200.03;;
12623;SDS011;6377;42.836;23.998;2023-02-18T08:46:37;262.83;;;163.97;;
12623;SDS011;6377;42.836;23.998;2023-02-18T08:49:04;226.80;;;143.67;;
12623;SDS011;6377;42.836;23.998;2023-02-18T08:51:32;219.33;;;134.90;;
12623;SDS011;6377;42.836;23.998;2023-02-18T08:54:00;172.00;;;114.60;;
12623;SDS011;6377;42.836;23.998;2023-02-18T08:56:27;174.60;;;112.27;;
12623;SDS011;6377;42.836;23.998;2023-02-18T08:58:55;183.83;;;119.63;;
12623;SDS011;6377;42.836;23.998;2023-02-18T09:01:24;172.33;;;111.93;;
12623;SDS011;6377;42.836;23.998;2023-02-18T09:03:53;172.73;;;111.67;;
12623;SDS011;6377;42.836;23.998;2023-02-18T09:06:20;143.73;;;90.93;;
12623;SDS011;6377;42.836;23.998;2023-02-18T09:08:47;111.03;;;73.00;;
12623;SDS011;6377;42.836;23.998;2023-02-18T09:11:15;97.10;;;63.53;;
12623;SDS011;6377;42.836;23.998;2023-02-18T09:13:42;69.00;;;47.87;;
12623;SDS011;6377;42.836;23.998;2023-02-18T09:16:10;51.20;;;34.33;;
12623;SDS011;6377;42.836;23.998;2023-02-18T09:18:39;47.33;;;30.03;;
12623;SDS011;6377;42.836;23.998;2023-02-18T09:21:08;45.40;;;29.27;;
12623;SDS011;6377;42.836;23.998;2023-02-18T09:23:38;42.33;;;26.90;;
12623;SDS011;6377;42.836;23.998;2023-02-18T09:26:06;56.33;;;32.63;;
12623;SDS011;6377;42.836;23.998;2023-02-18T09:28:34;42.57;;;25.60;;
12623;SDS011;6377;42.836;23.998;2023-02-18T09:31:03;25.00;;;18.03;;
12623;SDS011;6377;42.836;23.998;2023-02-18T09:33:33;22.30;;;13.87;;
12623;SDS011;6377;42.836;23.998;2023-02-18T09:36:01;19.50;;;11.33;;
12623;SDS011;6377;42.836;23.998;2023-02-18T09:38:30;13.30;;;10.10;;
12623;SDS011;6377;42.836;23.998;2023-02-18T09:40:58;16.37;;;11.70;;
12623;SDS011;6377;42.836;23.998;2023-02-18T09:43:29;43.97;;;27.77;;
12623;SDS011;6377;42.836;23.998;2023-02-18T09:46:00;50.73;;;31.63;;
12623;SDS011;6377;42.836;23.998;2023-02-18T09:48:30;20.43;;;13.43;;
12623;SDS011;6377;42.836;23.998;2023-02-18T09:51:00;13.23;;;9.70;;
12623;SDS011;6377;42.836;23.998;2023-02-18T09:53:28;13.07;;;9.13;;
12623;SDS011;6377;42.836;23.998;2023-02-18T09:55:57;14.17;;;10.47;;
12623;SDS011;6377;42.836;23.998;2023-02-18T09:58:26;16.20;;;11.17;;
12623;SDS011;6377;42.836;23.998;2023-02-18T10:00:58;41.57;;;22.73;;
12623;SDS011;6377;42.836;23.998;2023-02-18T10:03:31;17.10;;;11.80;;
12623;SDS011;6377;42.836;23.998;2023-02-18T10:05:59;17.27;;;13.27;;
12623;SDS011;6377;42.836;23.998;2023-02-18T10:08:32;15.33;;;12.37;;
12623;SDS011;6377;42.836;23.998;2023-02-18T10:11:03;19.23;;;12.57;;
12623;SDS011;6377;42.836;23.998;2023-02-18T10:13:39;10.80;;;7.40;;
12623;SDS011;6377;42.836;23.998;2023-02-18T10:16:07;15.27;;;11.60;;
12623;SDS011;6377;42.836;23.998;2023-02-18T10:18:38;14.47;;;9.80;;
12623;SDS011;6377;42.836;23.998;2023-02-18T10:21:08;14.50;;;11.30;;
12623;SDS011;6377;42.836;23.998;2023-02-18T10:23:39;13.70;;;9.73;;
12623;SDS011;6377;42.836;23.998;2023-02-18T10:26:11;14.47;;;9.30;;
12623;SDS011;6377;42.836;23.998;2023-02-18T10:28:42;15.40;;;8.90;;
12623;SDS011;6377;42.836;23.998;2023-02-18T10:31:11;11.60;;;7.67;;
12623;SDS011;6377;42.836;23.998;2023-02-18T10:33:45;13.10;;;7.73;;
12623;SDS011;6377;42.836;23.998;2023-02-18T10:36:20;17.10;;;11.13;;
12623;SDS011;6377;42.836;23.998;2023-02-18T10:38:56;12.70;;;9.13;;
12623;SDS011;6377;42.836;23.998;2023-02-18T10:41:39;19.63;;;13.17;;
12623;SDS011;6377;42.836;23.998;2023-02-18T10:44:13;17.93;;;11.43;;
12623;SDS011;6377;42.836;23.998;2023-02-18T10:46:49;19.37;;;10.53;;
12623;SDS011;6377;42.836;23.998;2023-02-18T10:49:39;14.57;;;8.60;;
12623;SDS011;6377;42.836;23.998;2023-02-18T10:52:23;11.03;;;9.33;;
12623;SDS011;6377;42.836;23.998;2023-02-18T10:54:57;13.53;;;8.20;;
12623;SDS011;6377;42.836;23.998;2023-02-18T10:57:27;23.07;;;10.70;;
12623;SDS011;6377;42.836;23.998;2023-02-18T10:59:55;8.27;;;6.63;;
12623;SDS011;6377;42.836;23.998;2023-02-18T11:02:25;25.53;;;17.30;;
12623;SDS011;6377;42.836;23.998;2023-02-18T11:04:56;9.27;;;7.03;;
12623;SDS011;6377;42.836;23.998;2023-02-18T11:07:25;13.47;;;10.87;;
12623;SDS011;6377;42.836;23.998;2023-02-18T11:09:57;8.27;;;5.53;;
12623;SDS011;6377;42.836;23.998;2023-02-18T11:12:28;7.57;;;4.70;;
12623;SDS011;6377;42.836;23.998;2023-02-18T11:15:05;16.37;;;11.50;;
12623;SDS011;6377;42.836;23.998;2023-02-18T11:17:43;9.30;;;6.70;;
12623;SDS011;6377;42.836;23.998;2023-02-18T11:20:20;10.90;;;4.97;;
12623;SDS011;6377;42.836;23.998;2023-02-18T11:22:56;7.33;;;4.73;;
12623;SDS011;6377;42.836;23.998;2023-02-18T11:25:25;11.47;;;10.27;;
12623;SDS011;6377;42.836;23.998;2023-02-18T11:27:56;7.70;;;6.43;;
12623;SDS011;6377;42.836;23.998;2023-02-18T11:30:25;7.93;;;5.90;;
12623;SDS011;6377;42.836;23.998;2023-02-18T11:32:58;5.17;;;4.30;;
12623;SDS011;6377;42.836;23.998;2023-02-18T11:35:29;9.83;;;7.10;;
12623;SDS011;6377;42.836;23.998;2023-02-18T11:37:58;14.10;;;9.97;;
12623;SDS011;6377;42.836;23.998;2023-02-18T11:40:29;13.60;;;10.43;;
12623;SDS011;6377;42.836;23.998;2023-02-18T11:43:05;16.00;;;10.20;;
12623;SDS011;6377;42.836;23.998;2023-02-18T11:45:38;19.37;;;16.67;;
12623;SDS011;6377;42.836;23.998;2023-02-18T11:48:06;7.80;;;5.77;;
12623;SDS011;6377;42.836;23.998;2023-02-18T11:50:41;8.57;;;5.90;;
12623;SDS011;6377;42.836;23.998;2023-02-18T11:56:04;10.97;;;6.90;;
12623;SDS011;6377;42.836;23.998;2023-02-18T11:58:44;8.37;;;7.50;;
12623;SDS011;6377;42.836;23.998;2023-02-18T12:01:17;6.13;;;3.53;;
12623;SDS011;6377;42.836;23.998;2023-02-18T12:03:54;7.23;;;5.00;;
12623;SDS011;6377;42.836;23.998;2023-02-18T12:06:25;19.33;;;11.60;;
12623;SDS011;6377;42.836;23.998;2023-02-18T12:08:59;38.03;;;25.23;;
12623;SDS011;6377;42.836;23.998;2023-02-18T12:11:30;30.77;;;18.53;;
12623;SDS011;6377;42.836;23.998;2023-02-18T12:14:07;17.13;;;9.20;;
12623;SDS011;6377;42.836;23.998;2023-02-18T12:16:43;7.63;;;4.70;;
12623;SDS011;6377;42.836;23.998;2023-02-18T12:19:23;25.53;;;17.43;;
12623;SDS011;6377;42.836;23.998;2023-02-18T12:22:04;19.57;;;14.53;;
12623;SDS011;6377;42.836;23.998;2023-02-18T12:24:42;8.23;;;5.00;;
12623;SDS011;6377;42.836;23.998;2023-02-18T12:27:23;42.70;;;20.27;;
12623;SDS011;6377;42.836;23.998;2023-02-18T12:30:06;15.23;;;9.67;;
12623;SDS011;6377;42.836;23.998;2023-02-18T12:32:57;32.47;;;19.10;;
12623;SDS011;6377;42.836;23.998;2023-02-18T12:35:39;6.27;;;4.80;;
12623;SDS011;6377;42.836;23.998;2023-02-18T12:38:24;11.47;;;7.93;;
12623;SDS011;6377;42.836;23.998;2023-02-18T12:41:19;12.90;;;8.73;;
12623;SDS011;6377;42.836;23.998;2023-02-18T12:43:57;13.50;;;12.10;;
12623;SDS011;6377;42.836;23.998;2023-02-18T12:46:38;8.40;;;6.43;;
12623;SDS011;6377;42.836;23.998;2023-02-18T12:49:32;15.37;;;11.13;;
12623;SDS011;6377;42.836;23.998;2023-02-18T12:52:24;7.40;;;5.77;;
12623;SDS011;6377;42.836;23.998;2023-02-18T12:55:15;19.77;;;15.43;;
12623;SDS011;6377;42.836;23.998;2023-02-18T12:58:04;5.80;;;4.47;;
12623;SDS011;6377;42.836;23.998;2023-02-18T13:10:00;12.57;;;8.00;;
12623;SDS011;6377;42.836;23.998;2023-02-18T13:12:50;14.53;;;8.93;;
12623;SDS011;6377;42.836;23.998;2023-02-18T13:15:27;17.93;;;11.30;;
12623;SDS011;6377;42.836;23.998;2023-02-18T13:18:02;7.77;;;4.90;;
12623;SDS011;6377;42.836;23.998;2023-02-18T13:20:36;6.47;;;5.37;;
12623;SDS011;6377;42.836;23.998;2023-02-18T13:23:08;13.57;;;7.07;;
12623;SDS011;6377;42.836;23.998;2023-02-18T13:25:42;11.80;;;9.70;;
12623;SDS011;6377;42.836;23.998;2023-02-18T13:28:12;20.70;;;14.63;;
12623;SDS011;6377;42.836;23.998;2023-02-18T13:30:47;15.93;;;9.83;;
12623;SDS011;6377;42.836;23.998;2023-02-18T13:33:20;15.93;;;12.17;;
12623;SDS011;6377;42.836;23.998;2023-02-18T13:35:56;15.77;;;13.30;;
12623;SDS011;6377;42.836;23.998;2023-02-18T13:41:21;11.03;;;8.60;;
12623;SDS011;6377;42.836;23.998;2023-02-18T13:43:49;7.30;;;5.47;;
12623;SDS011;6377;42.836;23.998;2023-02-18T13:46:17;8.93;;;5.50;;
12623;SDS011;6377;42.836;23.998;2023-02-18T13:48:47;17.80;;;12.30;;
12623;SDS011;6377;42.836;23.998;2023-02-18T13:51:16;9.87;;;6.17;;
12623;SDS011;6377;42.836;23.998;2023-02-18T13:53:59;12.43;;;8.30;;
12623;SDS011;6377;42.836;23.998;2023-02-18T13:56:30;14.13;;;9.63;;
12623;SDS011;6377;42.836;23.998;2023-02-18T13:58:59;25.17;;;15.33;;
12623;SDS011;6377;42.836;23.998;2023-02-18T14:01:36;9.27;;;6.60;;
12623;SDS011;6377;42.836;23.998;2023-02-18T14:07:17;10.77;;;6.87;;
12623;SDS011;6377;42.836;23.998;2023-02-18T14:09:54;8.03;;;6.00;;
12623;SDS011;6377;42.836;23.998;2023-02-18T14:12:24;12.67;;;9.40;;
12623;SDS011;6377;42.836;23.998;2023-02-18T14:15:48;31.53;;;22.50;;
12623;SDS011;6377;42.836;23.998;2023-02-18T14:18:21;5.50;;;4.23;;
12623;SDS011;6377;42.836;23.998;2023-02-18T14:20:50;23.27;;;14.90;;
12623;SDS011;6377;42.836;23.998;2023-02-18T14:26:15;22.33;;;13.17;;
12623;SDS011;6377;42.836;23.998;2023-02-18T14:28:52;15.77;;;9.17;;
12623;SDS011;6377;42.836;23.998;2023-02-18T14:34:17;23.50;;;15.80;;
12623;SDS011;6377;42.836;23.998;2023-02-18T14:37:03;9.33;;;5.67;;
12623;SDS011;6377;42.836;23.998;2023-02-18T14:39:54;25.70;;;18.43;;
12623;SDS011;6377;42.836;23.998;2023-02-18T14:42:36;19.63;;;12.17;;
12623;SDS011;6377;42.836;23.998;2023-02-18T14:45:16;16.80;;;12.57;;
12623;SDS011;6377;42.836;23.998;2023-02-18T14:48:05;10.50;;;7.10;;
12623;SDS011;6377;42.836;23.998;2023-02-18T14:50:48;14.23;;;10.07;;
12623;SDS011;6377;42.836;23.998;2023-02-18T14:53:17;16.43;;;11.27;;
12623;SDS011;6377;42.836;23.998;2023-02-18T14:55:48;15.30;;;8.67;;
12623;SDS011;6377;42.836;23.998;2023-02-18T14:58:23;18.70;;;13.37;;
12623;SDS011;6377;42.836;23.998;2023-02-18T15:00:55;21.43;;;10.77;;
12623;SDS011;6377;42.836;23.998;2023-02-18T15:03:24;141.07;;;32.73;;
12623;SDS011;6377;42.836;23.998;2023-02-18T15:05:52;205.87;;;75.67;;
12623;SDS011;6377;42.836;23.998;2023-02-18T15:08:20;306.10;;;126.57;;
12623;SDS011;6377;42.836;23.998;2023-02-18T15:10:49;149.30;;;67.43;;
12623;SDS011;6377;42.836;23.998;2023-02-18T15:13:22;357.47;;;146.33;;
12623;SDS011;6377;42.836;23.998;2023-02-18T15:15:53;39.20;;;21.60;;
12623;SDS011;6377;42.836;23.998;2023-02-18T15:18:26;32.97;;;18.20;;
12623;SDS011;6377;42.836;23.998;2023-02-18T15:20:56;19.00;;;14.50;;
12623;SDS011;6377;42.836;23.998;2023-02-18T15:23:27;19.57;;;13.93;;
12623;SDS011;6377;42.836;23.998;2023-02-18T15:25:55;9.20;;;7.47;;